Time;durP1;ratioP1;P1;durP2;ratioP2;P2;SDS_P1;SDS_P2;PMS_P1;PMS_P2;Temp;Humidity;BMP_temperature;BMP_pressure;BME280_temperature;BME280_humidity;BME280_pressure;Samples;Min_cycle;Max_cycle;Signal;HPM_P1;HPM_P2
2023/03/09 00:02:04;;;;;;;12.00;8.90;;;15.50;58.40;;;;;;3927745;30;20460;-61
2023/03/09 00:04:45;;;;;;;11.40;9.13;;;15.60;57.60;;;;;;3928347;30;20073;-62
2023/03/09 00:07:30;;;;;;;10.63;8.85;;;15.60;57.90;;;;;;3927822;30;20059;-61
2023/03/09 00:10:12;;;;;;;9.60;8.55;;;15.60;58.10;;;;;;3927342;30;20117;-61
2023/03/09 00:12:54;;;;;;;10.35;8.93;;;15.60;58.20;;;;;;3927883;30;20145;-62
2023/03/09 00:15:35;;;;;;;8.70;7.72;;;15.60;58.10;;;;;;3927494;30;20137;-63
2023/03/09 00:18:16;;;;;;;8.82;7.93;;;15.60;58.10;;;;;;3927638;30;20083;-62
2023/03/09 00:20:57;;;;;;;9.10;7.47;;;15.60;57.90;;;;;;3923161;30;20167;-62
2023/03/09 00:23:38;;;;;;;10.20;7.80;;;15.50;58.80;;;;;;3917184;30;20427;-62
2023/03/09 00:26:19;;;;;;;9.80;8.80;;;15.50;57.70;;;;;;3928171;30;20230;-62
2023/03/09 00:29:02;;;;;;;10.65;9.00;;;15.60;57.80;;;;;;3927544;30;20917;-62
2023/03/09 00:31:44;;;;;;;8.75;7.63;;;15.60;58.00;;;;;;3910529;30;20402;-62
2023/03/09 00:34:25;;;;;;;10.85;8.40;;;15.60;58.00;;;;;;3927698;30;20063;-62
2023/03/09 00:37:06;;;;;;;9.05;7.95;;;15.60;57.90;;;;;;3916605;30;20706;-62
2023/03/09 00:39:47;;;;;;;10.40;8.52;;;15.60;58.20;;;;;;3927171;30;20431;-62
2023/03/09 00:42:28;;;;;;;8.20;7.43;;;15.70;57.70;;;;;;3912921;30;20559;-62
2023/03/09 00:45:11;;;;;;;9.50;8.23;;;15.80;57.50;;;;;;3902079;30;20059;-62
2023/03/09 00:47:52;;;;;;;9.90;8.20;;;15.80;57.10;;;;;;3901766;30;20067;-63
2023/03/09 00:50:33;;;;;;;;;;;15.80;57.10;;;;;;3926173;30;20109;-63
2023/03/09 00:53:14;;;;;;;9.38;7.93;;;15.90;58.00;;;;;;3927690;30;19933;-62
2023/03/09 00:55:55;;;;;;;9.23;8.23;;;15.90;57.20;;;;;;3911861;30;20075;-63
2023/03/09 00:58:37;;;;;;;9.02;8.10;;;15.90;57.40;;;;;;3915895;30;20308;-62
2023/03/09 01:01:20;;;;;;;10.10;8.23;;;15.80;57.40;;;;;;3922041;30;20104;-62
2023/03/09 01:04:00;;;;;;;10.02;9.02;;;15.80;56.80;;;;;;3916981;30;20148;-63
2023/03/09 01:06:42;;;;;;;;;;;15.80;57.30;;;;;;3910344;30;20059;-63
2023/03/09 01:09:23;;;;;;;12.02;8.77;;;15.80;56.40;;;;;;3923502;30;20048;-63
2023/03/09 01:12:04;;;;;;;9.75;8.77;;;15.70;57.10;;;;;;3914325;30;20055;-63
2023/03/09 01:14:48;;;;;;;10.45;9.43;;;15.70;57.00;;;;;;3926962;30;20082;-63
2023/03/09 01:17:30;;;;;;;11.20;9.10;;;15.70;57.70;;;;;;3927023;30;20123;-62
2023/03/09 01:20:12;;;;;;;10.23;8.77;;;15.70;57.70;;;;;;3925954;30;20055;-62
2023/03/09 01:22:53;;;;;;;10.73;9.63;;;15.80;57.80;;;;;;3915294;30;20059;-62
2023/03/09 01:25:34;;;;;;;10.68;9.15;;;15.80;57.60;;;;;;3913128;30;20059;-62
2023/03/09 01:28:15;;;;;;;11.02;8.57;;;15.80;55.50;;;;;;3924595;30;20062;-63
2023/03/09 01:30:56;;;;;;;10.88;7.60;;;15.90;55.70;;;;;;3915823;30;20113;-63
2023/03/09 01:33:38;;;;;;;8.32;7.53;;;15.90;56.70;;;;;;3926442;30;20055;-63
2023/03/09 01:36:20;;;;;;;8.43;7.50;;;15.90;56.30;;;;;;3926699;30;20771;-63
2023/03/09 01:39:00;;;;;;;9.60;8.70;;;15.90;56.20;;;;;;3922009;30;20135;-63
2023/03/09 01:41:41;;;;;;;9.15;7.75;;;16.00;57.20;;;;;;3905695;30;20492;-62
2023/03/09 01:44:22;;;;;;;8.82;7.53;;;16.00;56.10;;;;;;3900562;30;20210;-68
2023/03/09 01:47:04;;;;;;;7.57;6.93;;;16.00;55.90;;;;;;3911658;30;20063;-67
2023/03/09 01:49:49;;;;;;;7.53;6.78;;;16.00;56.30;;;;;;3910165;30;20219;-67
2023/03/09 01:52:33;;;;;;;8.88;7.97;;;15.90;55.80;;;;;;3926229;30;20059;-68
2023/03/09 01:55:16;;;;;;;7.93;7.15;;;15.80;55.30;;;;;;3926333;30;20198;-68
2023/03/09 01:58:02;;;;;;;9.23;8.23;;;15.80;56.70;;;;;;3915325;30;20151;-69
2023/03/09 02:00:47;;;;;;;9.23;7.68;;;15.80;56.80;;;;;;3926116;30;20060;-69
2023/03/09 02:03:33;;;;;;;9.43;8.52;;;15.90;56.90;;;;;;3915212;30;20059;-68
2023/03/09 02:06:17;;;;;;;8.75;7.82;;;15.90;56.90;;;;;;3915276;30;20519;-68
2023/03/09 02:09:09;;;;;;;9.77;8.88;;;16.00;56.70;;;;;;3908842;30;20062;-68
2023/03/09 02:11:50;;;;;;;11.85;9.88;;;16.00;56.40;;;;;;3911927;30;20058;-68
2023/03/09 02:14:32;;;;;;;10.32;9.23;;;16.00;56.50;;;;;;3901427;30;20133;-68
2023/03/09 02:17:14;;;;;;;11.60;9.38;;;16.00;56.60;;;;;;3898601;30;20164;-68
2023/03/09 02:20:17;;;;;;;11.65;9.70;;;15.90;56.40;;;;;;3913561;30;20206;-67
2023/03/09 02:22:59;;;;;;;11.27;10.07;;;15.80;56.10;;;;;;3915383;30;20059;-67
2023/03/09 02:25:49;;;;;;;11.35;10.13;;;15.70;56.50;;;;;;3914789;30;20063;-67
2023/03/09 02:28:31;;;;;;;11.27;10.07;;;15.70;57.10;;;;;;3901140;30;20106;-68
2023/03/09 02:31:14;;;;;;;12.05;10.77;;;15.60;57.70;;;;;;3898013;30;20073;-68
2023/03/09 02:33:56;;;;;;;10.95;9.85;;;15.60;58.00;;;;;;3900624;30;20067;-68
2023/03/09 02:36:37;;;;;;;11.15;10.00;;;15.70;57.60;;;;;;3900708;30;20406;-68
2023/03/09 02:39:29;;;;;;;10.57;9.48;;;15.70;57.60;;;;;;3918069;30;20469;-68
2023/03/09 02:42:10;;;;;;;11.73;10.18;;;15.80;57.40;;;;;;3900258;30;20067;-67
2023/03/09 02:44:54;;;;;;;12.57;10.10;;;15.90;55.80;;;;;;3908325;30;20050;-68
2023/03/09 02:47:36;;;;;;;11.07;9.80;;;15.90;56.10;;;;;;3897691;30;20063;-63
2023/03/09 02:50:17;;;;;;;;;;;15.90;56.30;;;;;;3907557;30;20527;-62
2023/03/09 02:53:00;;;;;;;10.68;9.57;;;15.90;56.70;;;;;;3915171;30;20379;-62
2023/03/09 02:55:42;;;;;;;11.63;10.40;;;15.80;56.80;;;;;;3908623;30;20412;-62
2023/03/09 02:58:25;;;;;;;10.85;9.75;;;15.70;56.70;;;;;;3903796;30;20071;-62
2023/03/09 03:01:07;;;;;;;11.48;9.95;;;15.60;56.90;;;;;;3928169;30;20583;-62
2023/03/09 03:03:48;;;;;;;11.80;10.05;;;15.60;57.70;;;;;;3905968;30;20109;-63
2023/03/09 03:06:29;;;;;;;11.50;9.82;;;15.70;57.70;;;;;;3908741;30;20063;-63
2023/03/09 03:09:10;;;;;;;11.90;10.03;;;15.80;57.50;;;;;;3910249;30;20513;-63
2023/03/09 03:11:51;;;;;;;11.90;10.70;;;15.80;57.40;;;;;;3914327;30;20059;-62
2023/03/09 03:14:32;;;;;;;10.80;9.45;;;15.90;57.40;;;;;;3910467;30;20512;-62
2023/03/09 03:17:14;;;;;;;13.15;9.73;;;16.00;57.10;;;;;;3917643;30;20141;-62
2023/03/09 03:19:56;;;;;;;11.05;9.95;;;16.10;57.10;;;;;;3904282;30;20183;-62
2023/03/09 03:22:37;;;;;;;11.98;9.88;;;16.10;57.10;;;;;;3896291;30;20055;-63
2023/03/09 03:25:19;;;;;;;11.32;10.18;;;16.00;57.10;;;;;;3902884;30;20060;-63
2023/03/09 03:28:03;;;;;;;10.98;9.85;;;16.00;57.50;;;;;;3903474;30;20056;-62
2023/03/09 03:30:51;;;;;;;13.07;10.75;;;16.10;57.60;;;;;;3896922;30;20059;-62
2023/03/09 03:33:36;;;;;;;12.93;10.88;;;16.00;57.10;;;;;;3917269;30;20096;-62
2023/03/09 03:36:17;;;;;;;12.38;11.05;;;16.00;57.00;;;;;;3917684;30;20046;-63
2023/03/09 03:39:00;;;;;;;14.23;11.68;;;16.00;57.00;;;;;;3917028;30;20076;-63
2023/03/09 03:41:40;;;;;;;14.23;11.50;;;16.10;57.20;;;;;;3917193;30;20075;-63
2023/03/09 03:44:25;;;;;;;14.27;11.43;;;16.00;57.30;;;;;;3917453;30;20067;-63
2023/03/09 03:47:06;;;;;;;12.45;11.07;;;16.10;57.50;;;;;;3917272;30;20058;-63
2023/03/09 03:49:48;;;;;;;14.18;11.43;;;16.10;57.60;;;;;;3911582;30;20495;-68
2023/03/09 03:52:30;;;;;;;13.68;11.15;;;16.20;57.40;;;;;;3916769;30;20063;-68
2023/03/09 03:55:11;;;;;;;13.55;12.02;;;16.20;57.10;;;;;;3914544;30;20404;-68
2023/03/09 03:57:52;;;;;;;16.92;13.60;;;16.20;57.10;;;;;;3907108;30;20059;-63
2023/03/09 04:00:33;;;;;;;16.00;11.73;;;16.20;57.20;;;;;;3914327;30;20055;-63
2023/03/09 04:03:18;;;;;;;17.08;13.02;;;16.10;57.20;;;;;;3916324;30;20110;-63
2023/03/09 04:06:02;;;;;;;15.70;13.23;;;16.10;58.00;;;;;;3917601;30;20529;-62
2023/03/09 04:08:44;;;;;;;15.20;13.07;;;16.00;57.30;;;;;;3911222;30;20408;-63
2023/03/09 04:11:25;;;;;;;16.92;13.18;;;16.00;57.60;;;;;;3915532;30;20063;-63
2023/03/09 04:14:07;;;;;;;18.13;14.27;;;15.90;57.90;;;;;;3916981;30;20070;-62
2023/03/09 04:16:48;;;;;;;18.45;14.52;;;16.00;58.20;;;;;;3911473;30;20059;-62
2023/03/09 04:19:29;;;;;;;19.88;15.52;;;16.10;58.60;;;;;;3916361;30;20059;-62
2023/03/09 04:22:12;;;;;;;16.33;13.55;;;16.10;57.30;;;;;;3913598;30;20671;-62
2023/03/09 04:24:53;;;;;;;16.80;13.18;;;16.10;57.10;;;;;;3927866;30;20512;-63
2023/03/09 04:27:35;;;;;;;22.55;15.75;;;16.10;56.50;;;;;;3916789;30;20062;-62
2023/03/09 04:30:21;;;;;;;17.27;13.40;;;16.10;56.30;;;;;;3916276;30;20194;-62
2023/03/09 04:33:05;;;;;;;17.88;13.27;;;16.10;55.30;;;;;;3916083;30;20063;-62
2023/03/09 04:35:46;;;;;;;16.95;13.82;;;16.10;56.20;;;;;;3927751;30;20148;-63
2023/03/09 04:38:34;;;;;;;14.63;12.60;;;16.10;55.80;;;;;;3916247;30;20054;-63
2023/03/09 04:41:16;;;;;;;14.60;12.07;;;16.10;55.70;;;;;;3913942;30;20067;-68
2023/03/09 04:44:02;;;;;;;17.05;12.60;;;16.10;55.90;;;;;;3906276;30;20074;-68
2023/03/09 04:46:43;;;;;;;15.75;11.70;;;16.10;56.60;;;;;;3927553;30;20052;-69
2023/03/09 04:49:26;;;;;;;15.38;11.82;;;16.10;56.60;;;;;;3905995;30;20077;-68
2023/03/09 04:52:08;;;;;;;15.95;12.45;;;16.20;56.10;;;;;;3897440;30;20063;-68
2023/03/09 04:54:53;;;;;;;14.23;11.73;;;16.20;56.10;;;;;;3906143;30;20075;-68
2023/03/09 04:57:34;;;;;;;17.30;12.00;;;16.20;55.70;;;;;;3916371;30;20167;-68
2023/03/09 05:00:18;;;;;;;17.17;12.18;;;16.20;57.00;;;;;;3915946;30;20067;-69
2023/03/09 05:02:59;;;;;;;17.35;11.70;;;16.20;56.60;;;;;;3916420;30;20063;-68
2023/03/09 05:05:40;;;;;;;18.02;12.27;;;16.10;56.30;;;;;;3909601;30;20063;-68
2023/03/09 05:08:21;;;;;;;17.45;12.35;;;16.10;56.60;;;;;;3927085;30;20205;-68
2023/03/09 05:11:04;;;;;;;14.60;11.98;;;16.10;56.70;;;;;;3910397;30;20519;-68
2023/03/09 05:13:45;;;;;;;17.77;12.40;;;16.00;56.80;;;;;;3907011;30;20528;-67
2023/03/09 05:16:29;;;;;;;17.98;11.93;;;15.80;57.70;;;;;;3916149;30;20222;-68
2023/03/09 05:19:11;;;;;;;16.20;11.95;;;15.80;57.50;;;;;;3915409;30;20077;-68
2023/03/09 05:21:55;;;;;;;19.33;12.68;;;15.70;57.30;;;;;;3906753;30;20137;-67
2023/03/09 05:24:36;;;;;;;19.65;12.73;;;15.60;57.30;;;;;;3905713;30;20096;-67
2023/03/09 05:27:18;;;;;;;16.77;11.68;;;15.60;57.40;;;;;;3916078;30;20531;-67
2023/03/09 05:29:59;;;;;;;15.45;11.50;;;15.50;57.70;;;;;;3905143;30;20421;-68
2023/03/09 05:32:41;;;;;;;15.05;11.70;;;15.50;57.80;;;;;;3915957;30;20914;-68
2023/03/09 05:35:22;;;;;;;13.73;11.40;;;15.40;58.10;;;;;;3915767;30;20070;-67
2023/03/09 05:38:03;;;;;;;14.70;11.65;;;15.40;58.10;;;;;;3915442;30;20059;-67
2023/03/09 05:40:45;;;;;;;13.60;10.70;;;15.30;58.20;;;;;;3915688;30;20063;-68
2023/03/09 05:43:28;;;;;;;15.02;11.95;;;15.30;58.40;;;;;;3916101;30;20059;-68
2023/03/09 05:46:10;;;;;;;12.48;10.43;;;15.30;58.00;;;;;;3912757;30;20537;-68
2023/03/09 05:48:51;;;;;;;;;;;15.30;58.00;;;;;;3907745;30;20064;-67
2023/03/09 05:51:32;;;;;;;14.13;11.23;;;15.40;58.60;;;;;;3901461;30;19984;-68
2023/03/09 05:54:13;;;;;;;13.48;11.48;;;15.40;58.70;;;;;;3901277;30;20071;-68
2023/03/09 05:56:55;;;;;;;13.25;11.07;;;15.50;58.40;;;;;;3901400;30;20858;-68
2023/03/09 05:59:38;;;;;;;14.93;11.20;;;15.60;58.00;;;;;;3914976;30;20523;-67
2023/03/09 06:02:19;;;;;;;12.50;10.02;;;15.70;57.70;;;;;;3915396;30;20059;-68
2023/03/09 06:05:00;;;;;;;14.68;11.48;;;15.80;57.50;;;;;;3916226;30;20512;-68
2023/03/09 06:07:42;;;;;;;13.27;10.95;;;15.90;57.40;;;;;;3920277;30;20055;-68
2023/03/09 06:10:22;;;;;;;14.27;11.60;;;16.00;57.20;;;;;;3926550;30;20058;-68
2023/03/09 06:13:04;;;;;;;16.50;11.68;;;16.10;56.80;;;;;;3926678;30;20063;-68
2023/03/09 06:15:46;;;;;;;14.35;11.25;;;16.10;56.20;;;;;;3909666;30;20105;-68
2023/03/09 06:18:27;;;;;;;12.82;10.80;;;16.20;55.50;;;;;;3912370;30;20058;-67
2023/03/09 06:21:13;;;;;;;14.25;11.45;;;16.20;55.50;;;;;;3915523;30;20520;-67
2023/03/09 06:23:56;;;;;;;16.10;11.38;;;16.30;55.10;;;;;;3915571;30;20078;-67
2023/03/09 06:26:38;;;;;;;14.60;10.45;;;16.30;55.50;;;;;;3915208;30;20079;-67
2023/03/09 06:29:23;;;;;;;12.55;10.68;;;16.30;56.10;;;;;;3904618;30;20660;-67
2023/03/09 06:32:06;;;;;;;14.77;10.55;;;16.30;56.10;;;;;;3918313;30;20067;-68
2023/03/09 06:34:49;;;;;;;11.57;9.82;;;16.50;56.00;;;;;;3918500;30;20431;-67
2023/03/09 06:37:31;;;;;;;12.70;10.95;;;16.50;55.40;;;;;;3912757;30;20060;-68
2023/03/09 06:40:13;;;;;;;14.23;10.07;;;16.50;55.30;;;;;;3907839;30;20063;-68
2023/03/09 06:42:54;;;;;;;11.38;10.07;;;16.50;55.20;;;;;;3913272;30;20093;-68
2023/03/09 06:45:36;;;;;;;13.32;10.50;;;16.40;55.20;;;;;;3918160;30;20101;-67
2023/03/09 06:48:19;;;;;;;15.77;10.30;;;16.50;55.30;;;;;;3919949;30;20055;-68
2023/03/09 06:51:00;;;;;;;11.20;9.98;;;16.40;55.20;;;;;;3913726;30;20063;-69
2023/03/09 06:53:40;;;;;;;12.07;9.90;;;16.30;55.40;;;;;;3929269;30;20063;-67
2023/03/09 06:56:23;;;;;;;11.52;9.88;;;16.20;55.90;;;;;;3917640;30;20137;-67
2023/03/09 06:59:04;;;;;;;13.18;11.00;;;16.20;56.40;;;;;;3914387;30;20154;-67
2023/03/09 07:01:46;;;;;;;11.52;9.70;;;16.20;55.80;;;;;;3917926;30;20059;-67
2023/03/09 07:04:29;;;;;;;11.10;9.68;;;16.20;55.40;;;;;;3917163;30;20063;-63
2023/03/09 07:07:12;;;;;;;13.32;10.55;;;16.10;55.60;;;;;;3928365;30;20108;-63
2023/03/09 07:09:52;;;;;;;11.82;10.18;;;16.00;56.50;;;;;;3909565;30;20060;-63
2023/03/09 07:12:34;;;;;;;12.38;10.27;;;15.90;55.00;;;;;;3918991;30;20063;-62
2023/03/09 07:15:15;;;;;;;11.77;10.50;;;15.80;55.80;;;;;;3917443;30;20069;-62
2023/03/09 07:17:56;;;;;;;12.80;10.30;;;15.80;55.40;;;;;;3912791;30;20063;-63
2023/03/09 07:20:38;;;;;;;11.27;10.05;;;15.70;55.70;;;;;;3928472;30;20063;-63
2023/03/09 07:23:19;;;;;;;11.65;10.35;;;15.60;56.00;;;;;;3928189;30;20051;-63
2023/03/09 07:26:01;;;;;;;11.93;10.50;;;15.60;55.20;;;;;;3912681;30;20063;-63
2023/03/09 07:28:42;;;;;;;11.65;9.75;;;15.60;54.80;;;;;;3917516;30;20055;-63
2023/03/09 07:31:23;;;;;;;10.43;9.35;;;15.60;55.30;;;;;;3924605;30;20521;-63
2023/03/09 07:34:04;;;;;;;11.52;10.35;;;15.70;55.60;;;;;;3921901;30;20063;-63
2023/03/09 07:36:47;;;;;;;12.13;10.63;;;15.60;55.60;;;;;;3917251;30;20055;-63
2023/03/09 07:39:28;;;;;;;12.82;10.00;;;15.60;54.30;;;;;;3928200;30;20063;-63
2023/03/09 07:42:09;;;;;;;10.88;9.77;;;15.50;55.30;;;;;;3928085;30;20067;-63
2023/03/09 07:45:13;;;;;;;10.77;9.18;;;15.50;56.00;;;;;;3917236;30;20109;-63
2023/03/09 07:47:53;;;;;;;11.93;10.47;;;15.40;55.90;;;;;;3928439;30;20190;-63
2023/03/09 07:50:34;;;;;;;13.10;10.32;;;15.50;55.50;;;;;;3928258;30;20194;-63
2023/03/09 07:53:17;;;;;;;12.02;9.45;;;15.60;56.10;;;;;;3925848;30;20055;-63
2023/03/09 07:56:00;;;;;;;11.52;9.85;;;15.70;54.60;;;;;;3928027;30;20519;-63
2023/03/09 07:58:41;;;;;;;11.20;9.82;;;15.80;55.20;;;;;;3928388;30;20063;-63
2023/03/09 08:01:23;;;;;;;10.70;9.63;;;15.90;54.70;;;;;;3928291;30;20506;-63
2023/03/09 08:04:03;;;;;;;10.80;9.70;;;16.10;54.30;;;;;;3928588;30;20074;-63
2023/03/09 08:06:44;;;;;;;11.32;10.10;;;16.10;53.00;;;;;;3928366;30;20413;-63
2023/03/09 08:09:27;;;;;;;10.70;9.50;;;16.20;54.70;;;;;;3928440;30;20500;-63
2023/03/09 08:12:09;;;;;;;11.18;10.02;;;16.20;52.00;;;;;;3928174;30;20412;-64
2023/03/09 08:14:50;;;;;;;11.45;9.13;;;16.20;53.20;;;;;;3928220;30;20071;-63
2023/03/09 08:17:31;;;;;;;10.50;9.35;;;16.10;53.50;;;;;;3916991;30;20189;-63
2023/03/09 08:20:14;;;;;;;10.90;9.15;;;16.10;53.40;;;;;;3927711;30;20552;-63
2023/03/09 08:22:55;;;;;;;10.43;9.52;;;16.10;53.60;;;;;;3917101;30;20083;-63
2023/03/09 08:25:38;;;;;;;10.88;9.88;;;16.10;53.20;;;;;;3926951;30;20055;-64
2023/03/09 08:28:22;;;;;;;10.18;9.15;;;16.10;52.40;;;;;;3927172;30;20055;-70
2023/03/09 08:31:02;;;;;;;10.35;8.27;;;16.10;52.30;;;;;;3927326;30;20067;-65
2023/03/09 08:33:43;;;;;;;10.07;8.57;;;16.10;53.10;;;;;;3913387;30;20405;-64
2023/03/09 08:36:24;;;;;;;9.20;8.20;;;16.10;53.80;;;;;;3913085;30;20194;-65
2023/03/09 08:39:05;;;;;;;8.90;8.00;;;16.10;52.70;;;;;;3905429;30;20054;-63
2023/03/09 08:41:47;;;;;;;9.27;8.27;;;16.00;52.70;;;;;;3924562;30;20050;-69
2023/03/09 08:44:28;;;;;;;9.30;8.40;;;16.00;52.70;;;;;;3903010;30;20067;-72
2023/03/09 08:47:09;;;;;;;9.77;7.95;;;15.90;53.60;;;;;;3912163;30;20083;-69
2023/03/09 08:49:50;;;;;;;8.38;7.60;;;15.90;53.80;;;;;;3911998;30;20190;-69
2023/03/09 08:52:34;;;;;;;9.10;7.90;;;15.90;54.50;;;;;;3912608;30;20117;-70
2023/03/09 08:55:15;;;;;;;7.93;7.15;;;16.00;54.10;;;;;;3911787;30;20157;-69
2023/03/09 08:57:58;;;;;;;10.43;7.80;;;16.00;53.10;;;;;;3907893;30;20174;-70
2023/03/09 09:00:39;;;;;;;7.55;6.85;;;16.00;54.50;;;;;;3912425;30;20048;-70
2023/03/09 09:03:20;;;;;;;6.93;6.25;;;16.10;54.50;;;;;;3901903;30;20526;-70
2023/03/09 09:06:05;;;;;;;8.68;7.60;;;16.10;54.20;;;;;;3901644;30;20397;-72
2023/03/09 09:08:46;;;;;;;7.97;7.18;;;16.10;53.80;;;;;;3906456;30;20076;-72
2023/03/09 09:11:27;;;;;;;7.20;6.50;;;16.10;53.80;;;;;;3922655;30;20052;-72
2023/03/09 09:14:09;;;;;;;7.32;6.63;;;16.20;54.00;;;;;;3926972;30;20305;-72
2023/03/09 09:16:50;;;;;;;7.57;6.85;;;16.20;54.60;;;;;;3926866;30;20067;-72
2023/03/09 09:19:31;;;;;;;8.48;7.45;;;16.20;54.50;;;;;;3926951;30;20393;-73
2023/03/09 09:22:12;;;;;;;7.93;7.22;;;16.20;54.90;;;;;;3909568;30;20064;-72
2023/03/09 09:24:53;;;;;;;8.25;6.75;;;16.30;55.10;;;;;;3907110;30;20129;-72
2023/03/09 09:27:34;;;;;;;9.73;7.18;;;16.40;55.30;;;;;;3901077;30;20055;-72
2023/03/09 09:30:18;;;;;;;7.25;6.47;;;16.40;55.20;;;;;;3915972;30;20104;-72
2023/03/09 09:32:59;;;;;;;6.90;6.30;;;16.40;54.40;;;;;;3926945;30;20147;-72
2023/03/09 09:35:40;;;;;;;7.75;6.47;;;16.40;53.50;;;;;;3919764;30;20055;-72
2023/03/09 09:38:21;;;;;;;6.70;6.10;;;16.40;54.80;;;;;;3926824;30;20063;-72
2023/03/09 09:41:06;;;;;;;7.65;6.82;;;16.40;55.00;;;;;;3916282;30;20063;-71
2023/03/09 09:43:49;;;;;;;8.90;6.10;;;16.50;55.20;;;;;;3906368;30;20065;-71
2023/03/09 09:46:35;;;;;;;7.10;6.40;;;16.50;55.50;;;;;;3912255;30;20067;-71
2023/03/09 09:49:20;;;;;;;7.20;6.50;;;16.50;55.40;;;;;;3911905;30;20190;-72
2023/03/09 09:52:15;;;;;;;7.15;6.35;;;16.60;53.40;;;;;;3912128;30;20081;-72
2023/03/09 09:55:01;;;;;;;7.90;6.68;;;16.60;53.00;;;;;;3912125;30;20096;-71
2023/03/09 09:57:44;;;;;;;10.98;6.63;;;16.50;53.10;;;;;;3911650;30;20052;-72
2023/03/09 10:00:32;;;;;;;7.28;6.57;;;16.50;54.40;;;;;;3916131;30;20067;-72
2023/03/09 10:03:20;;;;;;;8.10;6.60;;;16.60;52.10;;;;;;3912204;30;20068;-72
2023/03/09 10:06:06;;;;;;;7.07;6.40;;;16.60;53.40;;;;;;3890910;30;20059;-74
2023/03/09 10:08:50;;;;;;;6.72;6.13;;;16.60;53.70;;;;;;3911886;30;20099;-72
2023/03/09 10:11:35;;;;;;;7.32;6.60;;;16.60;54.30;;;;;;3911728;30;20063;-72
2023/03/09 10:14:25;;;;;;;6.93;6.15;;;16.50;52.90;;;;;;3911356;30;20405;-73
2023/03/09 10:17:14;;;;;;;6.45;5.85;;;16.40;52.90;;;;;;3911700;30;20543;-72
2023/03/09 10:20:01;;;;;;;6.68;6.10;;;16.40;52.90;;;;;;3914496;30;20083;-73
2023/03/09 10:22:46;;;;;;;12.70;7.95;;;16.30;53.60;;;;;;3908588;30;20047;-69
2023/03/09 10:25:33;;;;;;;6.10;5.50;;;16.30;54.30;;;;;;3914937;30;20130;-69
2023/03/09 10:28:18;;;;;;;5.75;5.25;;;16.40;53.30;;;;;;3912419;30;20059;-72
2023/03/09 10:31:03;;;;;;;5.40;4.93;;;16.40;53.10;;;;;;3914629;30;20059;-72
2023/03/09 10:33:46;;;;;;;5.93;5.32;;;16.40;53.80;;;;;;3898365;30;20063;-68
2023/03/09 10:36:32;;;;;;;6.00;5.47;;;16.40;54.20;;;;;;3914672;30;20063;-72
2023/03/09 10:39:15;;;;;;;6.78;5.88;;;16.40;54.20;;;;;;3915167;30;20059;-71
2023/03/09 10:41:59;;;;;;;5.88;5.20;;;16.40;54.30;;;;;;3914147;30;20068;-71
2023/03/09 10:44:43;;;;;;;6.30;5.75;;;16.50;53.10;;;;;;3911932;30;20534;-72
2023/03/09 10:47:25;;;;;;;5.63;5.15;;;16.50;53.20;;;;;;3924190;30;20055;-71
2023/03/09 10:50:09;;;;;;;5.78;5.28;;;16.50;53.30;;;;;;3925761;30;20063;-71
2023/03/09 10:53:34;;;;;;;6.45;5.45;;;16.50;52.70;;;;;;3914552;30;20527;-73
2023/03/09 10:56:19;;;;;;;8.85;5.47;;;16.40;53.60;;;;;;3925366;30;20200;-70
2023/03/09 10:59:16;;;;;;;6.50;5.15;;;16.50;54.60;;;;;;3926153;30;20409;-73
2023/03/09 11:01:59;;;;;;;5.82;4.47;;;16.50;54.80;;;;;;3925885;30;20067;-70
2023/03/09 11:04:41;;;;;;;6.20;4.65;;;16.60;54.90;;;;;;3914642;30;20538;-72
2023/03/09 11:07:27;;;;;;;5.38;4.88;;;16.60;54.40;;;;;;3924626;30;20516;-72
2023/03/09 11:10:25;;;;;;;5.07;4.65;;;16.60;54.00;;;;;;3924438;30;20063;-69
2023/03/09 11:13:06;;;;;;;6.50;5.03;;;16.60;54.30;;;;;;3910961;30;20057;-69
2023/03/09 11:16:06;;;;;;;7.70;4.50;;;16.50;54.40;;;;;;3922537;30;20417;-69
2023/03/09 11:18:48;;;;;;;6.03;5.35;;;16.50;54.60;;;;;;3904798;30;20079;-68
2023/03/09 11:21:30;;;;;;;5.88;5.10;;;16.50;55.20;;;;;;3917187;30;20063;-70
2023/03/09 11:24:14;;;;;;;5.55;5.03;;;16.40;55.30;;;;;;3920267;30;20056;-70
2023/03/09 11:27:05;;;;;;;6.13;5.00;;;16.30;55.20;;;;;;3914224;30;20072;-72
2023/03/09 11:29:53;;;;;;;6.15;5.20;;;16.20;55.90;;;;;;3923099;30;20133;-68
2023/03/09 11:32:34;;;;;;;7.43;5.57;;;16.10;55.70;;;;;;3917456;30;20213;-68
2023/03/09 11:35:17;;;;;;;5.40;4.90;;;16.00;56.10;;;;;;3913832;30;20130;-68
2023/03/09 11:38:02;;;;;;;5.30;4.80;;;16.00;55.70;;;;;;3902872;30;20191;-68
2023/03/09 11:40:44;;;;;;;5.53;4.80;;;15.90;55.60;;;;;;3914359;30;20052;-68
2023/03/09 11:43:30;;;;;;;6.45;5.85;;;15.80;56.00;;;;;;3927983;30;20615;-69
2023/03/09 11:46:15;;;;;;;6.35;5.65;;;15.80;56.20;;;;;;3916816;30;20504;-69
2023/03/09 11:49:08;;;;;;;5.75;5.25;;;15.70;55.70;;;;;;3914806;30;20069;-72
2023/03/09 11:51:50;;;;;;;8.90;5.53;;;15.60;56.50;;;;;;3921904;30;20066;-71
2023/03/09 11:54:34;;;;;;;5.85;5.30;;;15.50;57.90;;;;;;3928203;30;20178;-71
2023/03/09 11:57:19;;;;;;;6.10;5.50;;;15.50;57.70;;;;;;3904652;30;20116;-71
2023/03/09 12:00:07;;;;;;;6.50;5.30;;;15.50;57.30;;;;;;3928272;30;20416;-72
2023/03/09 12:02:59;;;;;;;6.28;5.05;;;15.50;56.50;;;;;;3917294;30;20140;-71
2023/03/09 12:05:45;;;;;;;5.68;5.18;;;15.50;57.40;;;;;;3922964;30;20058;-72
2023/03/09 12:08:31;;;;;;;5.68;5.25;;;15.50;57.50;;;;;;3927764;30;20137;-71
2023/03/09 12:11:18;;;;;;;6.18;5.22;;;15.40;57.40;;;;;;3927954;30;20182;-71
2023/03/09 12:14:05;;;;;;;5.38;4.88;;;15.40;57.40;;;;;;3927866;30;20070;-71
2023/03/09 12:16:51;;;;;;;6.57;5.82;;;15.30;57.80;;;;;;3899358;30;20059;-72
2023/03/09 12:19:34;;;;;;;6.90;5.88;;;15.40;58.20;;;;;;3919013;30;20105;-71
2023/03/09 12:22:18;;;;;;;6.63;5.80;;;15.50;58.30;;;;;;3927267;30;20055;-72
2023/03/09 12:25:01;;;;;;;6.45;5.85;;;15.60;58.00;;;;;;3922724;30;20058;-71
2023/03/09 12:27:49;;;;;;;6.60;6.00;;;15.60;57.80;;;;;;3926970;30;20101;-72
2023/03/09 12:30:34;;;;;;;5.75;5.15;;;15.70;57.50;;;;;;3921237;30;20067;-72
2023/03/09 12:33:35;;;;;;;6.18;5.60;;;15.70;57.10;;;;;;3925163;30;20062;-72
2023/03/09 12:36:29;;;;;;;6.18;5.57;;;15.60;57.50;;;;;;3926906;30;20059;-72
2023/03/09 12:39:33;;;;;;;5.25;4.85;;;15.60;57.70;;;;;;3919398;30;20123;-71
2023/03/09 12:42:28;;;;;;;5.82;5.30;;;15.70;57.10;;;;;;3927022;30;20208;-72
2023/03/09 12:45:30;;;;;;;9.50;6.07;;;15.70;55.20;;;;;;3926977;30;20067;-72
2023/03/09 12:48:23;;;;;;;6.47;5.82;;;15.80;56.20;;;;;;3902801;30;20499;-71
2023/03/09 12:51:11;;;;;;;10.90;5.88;;;15.70;56.70;;;;;;3912954;30;20605;-72
2023/03/09 12:54:01;;;;;;;10.25;6.10;;;15.70;57.30;;;;;;3911113;30;20548;-72
2023/03/09 12:56:41;;;;;;;10.77;6.05;;;15.70;57.30;;;;;;3927160;30;20197;-73
2023/03/09 12:59:28;;;;;;;7.60;6.28;;;15.80;56.80;;;;;;3920376;30;20210;-72
2023/03/09 13:02:31;;;;;;;6.57;6.03;;;15.90;57.30;;;;;;3917540;30;20055;-72
2023/03/09 13:05:24;;;;;;;7.13;5.53;;;15.90;56.70;;;;;;3927104;30;20085;-72
2023/03/09 13:08:18;;;;;;;7.80;6.15;;;15.90;57.10;;;;;;3915825;30;20059;-72
2023/03/09 13:11:33;;;;;;;6.78;6.05;;;15.90;57.90;;;;;;3913330;30;20485;-71
2023/03/09 13:14:18;;;;;;;6.95;6.25;;;15.90;57.10;;;;;;3926904;30;20159;-72
2023/03/09 13:16:59;;;;;;;6.22;5.63;;;15.90;57.60;;;;;;3926753;30;20059;-71
2023/03/09 13:19:53;;;;;;;6.97;6.28;;;15.90;57.70;;;;;;3926726;30;20070;-71
2023/03/09 13:22:41;;;;;;;6.80;6.07;;;15.90;58.00;;;;;;3920203;30;20059;-70
2023/03/09 13:25:32;;;;;;;6.50;6.00;;;15.90;58.20;;;;;;3918031;30;20540;-71
2023/03/09 13:28:34;;;;;;;7.10;6.13;;;15.90;58.40;;;;;;3926888;30;20071;-70
2023/03/09 13:31:27;;;;;;;7.97;6.43;;;15.90;58.60;;;;;;3912313;30;20056;-71
2023/03/09 13:34:16;;;;;;;7.25;6.55;;;15.90;58.50;;;;;;3912354;30;20060;-71
2023/03/09 13:37:01;;;;;;;7.45;6.55;;;15.90;58.50;;;;;;3912274;30;20605;-72
2023/03/09 13:39:57;;;;;;;7.65;6.30;;;15.80;59.30;;;;;;3921282;30;20155;-71
2023/03/09 13:42:40;;;;;;;7.05;6.32;;;15.90;58.50;;;;;;3926579;30;20059;-71
2023/03/09 13:45:23;;;;;;;7.50;6.80;;;15.90;58.70;;;;;;3926947;30;20075;-71
2023/03/09 13:48:07;;;;;;;6.93;6.35;;;15.80;58.40;;;;;;3926800;30;20117;-71
2023/03/09 13:50:48;;;;;;;6.80;6.10;;;15.80;58.70;;;;;;3912267;30;20069;-71
2023/03/09 13:53:29;;;;;;;7.53;6.65;;;15.80;58.70;;;;;;3912288;30;20051;-71
2023/03/09 13:56:15;;;;;;;7.88;6.43;;;15.70;58.70;;;;;;3912326;30;20153;-71
2023/03/09 13:58:57;;;;;;;12.98;7.43;;;15.70;59.00;;;;;;3915763;30;20066;-72
2023/03/09 14:01:40;;;;;;;8.55;7.15;;;15.70;59.10;;;;;;3926906;30;20059;-71
2023/03/09 14:04:25;;;;;;;7.07;6.47;;;15.70;58.90;;;;;;3926617;30;20059;-70